ニアメ の空港の天気 - METARとTAF

ニアメ/ディオリ・アマニ国際空港 ( DRRN / NIM ) - ニジェール ニアメ
飛行場実況気象(Metar)
観測時間09/25 02:00 WAT (09/25 01:00 UTC)
風向・風速南 4m/s
視程8000m
天気現象
全天の4割程度の雲 雲底高度 610m
少しの雲 雲底高度 910m
気温26℃
湿度70%
気圧1011hPa
METARDRRN 250100Z 17007KT 8000 TS SCT020 FEW030CB 26/20 Q1011 BECMG NSW
過去の天気等 Google飛行場航空写真 Wunderground天気予報

過去48時間のMETAR

飛行場予報(TAF)
発表時間: 9/25 00:00 WAT (9/24 23:00 UTC)
予報対象時間: 25日1時 WAT ~ 26日7時 WAT
風向・風速南西 3m/s
視程10km以上
少しの雲 雲底高度 610m
25日1時 WAT ~ 25日4時 WAT に一時的に
風向・風速南東 15m/s
視程1200m
天気現象高い風塵 弱い雷雨
全天の4割程度の雲 雲底高度 610m
少しの積乱雲 雲底高度 910m
25日15時 WAT ~ 25日21時 WAT に 確率 40% で一時的に
風向・風速不定 13m/s
視程2000m
天気現象高い風塵 弱い雷雨
全天の4割程度の雲 雲底高度 610m
少しの積乱雲 雲底高度 980m
TAF DRRN 242300Z 2500/2606 22006KT 9999 FEW020
TEMPO 2500/2503 14030KT 1200 BLDU -TSRA SCT020 FEW030CB
PROB40 TEMPO 2514/2520 VRB25KT 2000 BLDU -TSRA SCT020 FEW032CB